createdAt,value
2023-09-16T00:02:42.652Z,100095.84
2023-09-16T00:07:46.207Z,100097.69
2023-09-16T00:12:49.185Z,100091.47
2023-09-16T00:17:52.325Z,100098.34
2023-09-16T00:22:55.857Z,100091.41
2023-09-16T00:27:59.616Z,100100.31
2023-09-16T00:33:04.703Z,100092.41
2023-09-16T00:38:09.289Z,100098.84
2023-09-16T00:43:12.237Z,100106.19
2023-09-16T00:48:17.224Z,100102.59
2023-09-16T00:53:21.481Z,100102.66
2023-09-16T00:58:24.782Z,100103.47
2023-09-16T01:03:29.326Z,100097.88
2023-09-16T01:08:36.039Z,100094.88
2023-09-16T01:13:40.848Z,100101.81
2023-09-16T01:18:49.415Z,100105.56
2023-09-16T01:24:19.885Z,100110.41
2023-09-16T01:29:24.670Z,100112.13
2023-09-16T01:34:53.999Z,100107.28
2023-09-16T01:40:01.292Z,100108.09
2023-09-16T01:45:05.499Z,100110.38
2023-09-16T01:50:09.042Z,100122.84
2023-09-16T01:55:12.119Z,100129.41
2023-09-16T02:00:15.765Z,100125.56
2023-09-16T02:05:18.859Z,100119.59
2023-09-16T02:10:21.832Z,100120.22
2023-09-16T02:15:24.616Z,100125.25
2023-09-16T02:20:27.621Z,100129.34
2023-09-16T02:25:34.172Z,100123.06
2023-09-16T02:30:37.140Z,100119.59
2023-09-16T02:35:41.436Z,100126.38
2023-09-16T02:40:44.690Z,100129.81
2023-09-16T02:45:49.571Z,100121.44
2023-09-16T02:50:52.840Z,100121.72
2023-09-16T02:55:56.735Z,100113.41
2023-09-16T03:00:59.767Z,100121.53
2023-09-16T03:06:03.176Z,100116.13
2023-09-16T03:11:25.020Z,100112.94
2023-09-16T03:16:27.959Z,100114.03
2023-09-16T03:21:33.859Z,100114.13
2023-09-16T03:26:40.374Z,100118.78
2023-09-16T03:31:43.563Z,100123.22
2023-09-16T03:36:53.921Z,100114.94
2023-09-16T03:41:57.582Z,100120.44
2023-09-16T03:47:00.805Z,100120.34
2023-09-16T03:52:10.232Z,100125.63
2023-09-16T03:57:13.317Z,100128.75
2023-09-16T04:02:16.303Z,100124.81
2023-09-16T04:07:20.205Z,100127.38
2023-09-16T04:12:25.038Z,100126.69
2023-09-16T04:17:28.879Z,100127.66
2023-09-16T04:22:32.128Z,100126.25
2023-09-16T04:27:37.872Z,100131.75
2023-09-16T04:32:42.155Z,100136.84
2023-09-16T04:37:45.123Z,100127.88
2023-09-16T04:42:48.241Z,100134.41
2023-09-16T04:47:53.480Z,100140.03
2023-09-16T04:52:57.633Z,100141.50
2023-09-16T04:58:00.803Z,100144.16
2023-09-16T05:03:04.140Z,100140.38
2023-09-16T05:08:06.978Z,100138.63
2023-09-16T05:13:11.143Z,100144.94
2023-09-16T05:18:14.440Z,100145.50
2023-09-16T05:23:17.790Z,100146.66
2023-09-16T05:28:21.740Z,100147.34
2023-09-16T05:33:26.355Z,100152.91
2023-09-16T05:38:30.133Z,100153.91
2023-09-16T05:43:33.977Z,100142.75
2023-09-16T05:48:37.405Z,100140.59
2023-09-16T05:53:41.185Z,100142.47
2023-09-16T05:58:44.602Z,100144.31
2023-09-16T06:03:48.372Z,100141.19
2023-09-16T06:08:53.484Z,100146.84
2023-09-16T06:13:57.242Z,100147.50
2023-09-16T06:19:00.736Z,100144.63
2023-09-16T06:24:04.445Z,100144.22
2023-09-16T06:29:07.874Z,100152.06
2023-09-16T06:34:11.700Z,100152.22
2023-09-16T06:39:14.912Z,100149.72
2023-09-16T06:44:19.280Z,100135.94
2023-09-16T06:49:22.365Z,100138.09
2023-09-16T06:54:25.454Z,100133.41
2023-09-16T06:59:30.018Z,100130.41
2023-09-16T07:04:33.137Z,100135.47
2023-09-16T07:09:36.470Z,100138.94
2023-09-16T07:14:40.015Z,100132.03
2023-09-16T07:19:43.252Z,100134.41
2023-09-16T07:24:46.688Z,100132.09
2023-09-16T07:29:50.024Z,100135.31
2023-09-16T07:34:53.108Z,100127.34
2023-09-16T07:39:56.240Z,100134.31
2023-09-16T07:44:59.340Z,100129.78
2023-09-16T07:50:02.643Z,100127.78
2023-09-16T07:55:09.405Z,100128.97
2023-09-16T08:00:13.151Z,100118.13
2023-09-16T08:05:16.365Z,100119.97
2023-09-16T08:10:19.495Z,100120.03
2023-09-16T08:15:22.840Z,100122.09
2023-09-16T08:20:26.460Z,100121.69
2023-09-16T08:25:29.977Z,100120.91
2023-09-16T08:30:33.652Z,100120.44
2023-09-16T08:35:36.976Z,100127.53
2023-09-16T08:40:42.045Z,100135.72
2023-09-16T08:45:50.450Z,100131.16
2023-09-16T08:50:55.566Z,100136.09
2023-09-16T08:56:00.708Z,100134.34
2023-09-16T09:01:04.804Z,100130.47
2023-09-16T09:06:09.013Z,100138.28
2023-09-16T09:11:16.390Z,100125.03
2023-09-16T09:16:21.410Z,100123.72
2023-09-16T09:21:25.698Z,100124.88
2023-09-16T09:26:29.250Z,100133.22
2023-09-16T09:31:32.860Z,100128.19
2023-09-16T09:36:36.526Z,100121.16
2023-09-16T09:41:48.050Z,100129.00
2023-09-16T09:46:51.068Z,100120.38
2023-09-16T09:51:54.507Z,100131.66
2023-09-16T09:56:58.136Z,100138.56
2023-09-16T10:02:06.036Z,100129.31
2023-09-16T10:07:09.754Z,100126.84
2023-09-16T10:12:14.161Z,100125.25
2023-09-16T10:17:17.469Z,100130.06
2023-09-16T10:22:20.793Z,100124.81
2023-09-16T10:27:29.106Z,100138.22
2023-09-16T10:32:32.612Z,100123.84
2023-09-16T10:37:37.752Z,100119.66
2023-09-16T10:42:43.444Z,100121.56
2023-09-16T10:47:47.969Z,100119.53
2023-09-16T10:52:56.721Z,100109.31
2023-09-16T10:58:48.909Z,100116.53
2023-09-16T11:03:59.354Z,100113.88
2023-09-16T11:09:02.761Z,100107.97
2023-09-16T11:14:06.683Z,100092.03
2023-09-16T11:19:10.033Z,100096.41
2023-09-16T11:24:13.753Z,100103.25
2023-09-16T11:29:19.068Z,100081.13
2023-09-16T11:34:24.988Z,100082.69
2023-09-16T11:39:45.094Z,100069.72
2023-09-16T11:44:48.429Z,100064.53
2023-09-16T11:49:52.224Z,100078.09
2023-09-16T11:54:55.862Z,100067.44
2023-09-16T12:00:18.008Z,100067.72
2023-09-16T12:05:24.332Z,100058.09
2023-09-16T12:10:27.390Z,100063.59
2023-09-16T12:15:30.636Z,100055.66
2023-09-16T12:20:35.565Z,100066.50
2023-09-16T12:25:42.966Z,100066.59
2023-09-16T12:30:49.335Z,100062.72
2023-09-16T12:35:53.936Z,100056.22
2023-09-16T12:40:57.196Z,100063.47
2023-09-16T12:46:02.283Z,100057.72
2023-09-16T12:51:05.781Z,100070.16
2023-09-16T12:56:09.276Z,100070.75
2023-09-16T13:01:21.264Z,100069.63
2023-09-16T13:06:24.817Z,100054.09
2023-09-16T13:11:28.533Z,100062.06
2023-09-16T13:16:39.535Z,100072.22
2023-09-16T13:21:43.018Z,100072.53
2023-09-16T13:26:56.877Z,100065.72
2023-09-16T13:32:06.574Z,100075.63
2023-09-16T13:37:10.031Z,100108.69
2023-09-16T13:42:13.608Z,100118.56
2023-09-16T13:47:17.761Z,100125.94
2023-09-16T13:52:21.311Z,100134.94
2023-09-16T13:57:24.506Z,100143.16
2023-09-16T14:02:45.839Z,100146.66
2023-09-16T14:07:49.554Z,100153.53
2023-09-16T14:12:53.818Z,100151.69
2023-09-16T14:17:56.881Z,100150.00
2023-09-16T14:23:01.046Z,100146.50
2023-09-16T14:28:06.342Z,100133.00
2023-09-16T14:33:09.554Z,100131.56
2023-09-16T14:38:13.422Z,100132.47
2023-09-16T14:43:16.657Z,100140.72
2023-09-16T14:48:20.487Z,100133.56
2023-09-16T14:53:23.605Z,100134.41
2023-09-16T14:58:26.710Z,100139.56
2023-09-16T15:03:29.820Z,100139.38
2023-09-16T15:08:32.775Z,100134.19
2023-09-16T15:13:35.650Z,100138.84
2023-09-16T15:18:41.623Z,100143.34
2023-09-16T15:23:44.746Z,100150.41
2023-09-16T15:28:48.558Z,100150.25
2023-09-16T15:33:52.988Z,100150.47
2023-09-16T15:38:56.722Z,100160.28
2023-09-16T15:43:59.714Z,100161.84
2023-09-16T15:49:03.019Z,100172.75
2023-09-16T15:54:06.327Z,100177.84
2023-09-16T15:59:09.370Z,100168.81
2023-09-16T16:04:12.519Z,100174.09
2023-09-16T16:09:15.539Z,100177.69
2023-09-16T16:14:18.616Z,100180.06
2023-09-16T16:19:21.684Z,100189.56
2023-09-16T16:24:25.259Z,100193.94
2023-09-16T16:29:29.332Z,100203.75
2023-09-16T16:34:32.421Z,100205.94
2023-09-16T16:39:35.824Z,100206.47
2023-09-16T16:44:40.972Z,100207.22
2023-09-16T16:49:44.846Z,100209.38
2023-09-16T16:54:50.392Z,100207.09
2023-09-16T16:59:53.510Z,100215.69
2023-09-16T17:04:58.382Z,100216.88
2023-09-16T17:10:01.470Z,100217.41
2023-09-16T17:15:05.561Z,100219.47
2023-09-16T17:20:09.471Z,100220.00
2023-09-16T17:25:12.604Z,100219.34
2023-09-16T17:30:15.505Z,100223.78
2023-09-16T17:35:18.666Z,100230.78
2023-09-16T17:40:23.810Z,100228.34
2023-09-16T17:45:26.907Z,100234.06
2023-09-16T17:50:29.941Z,100233.34
2023-09-16T17:55:32.966Z,100252.50
2023-09-16T18:00:35.904Z,100239.78
2023-09-16T18:05:39.001Z,100242.81
2023-09-16T18:10:42.064Z,100253.84
2023-09-16T18:15:45.418Z,100252.22
2023-09-16T18:20:48.900Z,100253.56
2023-09-16T18:25:52.060Z,100260.38
2023-09-16T18:30:54.822Z,100260.47
2023-09-16T18:35:57.692Z,100255.34
2023-09-16T18:41:01.080Z,100263.69
2023-09-16T18:46:06.817Z,100269.06
2023-09-16T18:51:09.970Z,100254.69
2023-09-16T18:56:12.792Z,100262.09
2023-09-16T19:01:16.810Z,100261.47
2023-09-16T19:06:19.876Z,100256.88
2023-09-16T19:11:24.660Z,100260.16
2023-09-16T19:16:27.687Z,100269.69
2023-09-16T19:21:30.646Z,100270.28
2023-09-16T19:26:33.612Z,100266.41
2023-09-16T19:31:36.975Z,100268.09
2023-09-16T19:36:40.285Z,100280.63
2023-09-16T19:41:43.766Z,100286.91
2023-09-16T19:46:56.125Z,100280.84
2023-09-16T19:52:00.666Z,100279.66
2023-09-16T19:57:04.896Z,100287.47
2023-09-16T20:02:08.295Z,100284.84
2023-09-16T20:07:13.542Z,100277.94
2023-09-16T20:12:17.060Z,100274.00
2023-09-16T20:17:38.642Z,100269.00
2023-09-16T20:22:42.467Z,100267.22
2023-09-16T20:27:45.646Z,100268.75
2023-09-16T20:32:48.453Z,100275.00
2023-09-16T20:37:52.869Z,100284.47
2023-09-16T20:42:56.470Z,100282.28
2023-09-16T20:47:59.669Z,100283.53
2023-09-16T20:53:04.677Z,100286.34
2023-09-16T20:58:26.903Z,100293.44
2023-09-16T21:03:30.253Z,100298.09
2023-09-16T21:08:33.160Z,100297.72
2023-09-16T21:13:45.769Z,100302.44
2023-09-16T21:18:50.016Z,100288.88
2023-09-16T21:23:53.487Z,100305.94
2023-09-16T21:28:56.414Z,100306.56
2023-09-16T21:33:59.719Z,100305.50
2023-09-16T21:39:02.609Z,100317.94
2023-09-16T21:44:06.131Z,100315.75
2023-09-16T21:49:09.346Z,100327.41
2023-09-16T21:54:12.399Z,100328.53
2023-09-16T21:59:15.523Z,100335.94
2023-09-16T22:04:19.025Z,100327.53
2023-09-16T22:09:22.019Z,100335.00
2023-09-16T22:14:24.980Z,100337.09
2023-09-16T22:19:28.084Z,100340.31
2023-09-16T22:24:30.988Z,100339.56
2023-09-16T22:29:33.800Z,100342.44
2023-09-16T22:34:36.865Z,100339.78
2023-09-16T22:39:51.119Z,100341.75
2023-09-16T22:45:05.820Z,100337.50
2023-09-16T22:50:09.993Z,100335.97
2023-09-16T22:55:12.859Z,100345.22
2023-09-16T23:00:16.312Z,100348.66
2023-09-16T23:05:19.323Z,100350.19
2023-09-16T23:10:23.158Z,100347.88
2023-09-16T23:15:26.418Z,100345.09
2023-09-16T23:20:29.495Z,100341.97
2023-09-16T23:25:32.597Z,100342.69
2023-09-16T23:30:35.580Z,100340.75
2023-09-16T23:35:38.847Z,100343.84
2023-09-16T23:40:43.293Z,100355.84
2023-09-16T23:45:46.858Z,100357.38
2023-09-16T23:50:49.816Z,100362.13
2023-09-16T23:55:52.794Z,100363.88
